sensor_id;sensor_type;location;lat;lon;timestamp;pressure;altitude;pressure_sealevel;temperature;humidity
67052;BME280;53957;47.222;18.670;2022-10-16T00:01:27;100655.75;;;10.73;100.00
67052;BME280;53957;47.222;18.670;2022-10-16T00:04:30;100660.84;;;10.74;100.00
67052;BME280;53957;47.222;18.670;2022-10-16T00:07:34;100656.06;;;10.66;100.00
67052;BME280;53957;47.222;18.670;2022-10-16T00:10:37;100654.72;;;10.69;100.00
67052;BME280;53957;47.222;18.670;2022-10-16T00:13:42;100662.50;;;10.55;100.00
67052;BME280;53957;47.222;18.670;2022-10-16T00:16:45;100659.78;;;10.65;100.00
67052;BME280;53957;47.222;18.670;2022-10-16T00:19:48;100653.94;;;10.63;100.00
67052;BME280;53957;47.222;18.670;2022-10-16T00:22:55;100667.25;;;10.73;100.00
67052;BME280;53957;47.222;18.670;2022-10-16T00:26:01;100662.56;;;11.10;100.00
67052;BME280;53957;47.222;18.670;2022-10-16T00:29:06;100664.72;;;11.03;100.00
67052;BME280;53957;47.222;18.670;2022-10-16T00:32:19;100661.06;;;10.83;100.00
67052;BME280;53957;47.222;18.670;2022-10-16T00:35:22;100668.34;;;10.67;100.00
67052;BME280;53957;47.222;18.670;2022-10-16T00:38:26;100665.72;;;10.41;100.00
67052;BME280;53957;47.222;18.670;2022-10-16T00:41:30;100670.25;;;10.30;100.00
67052;BME280;53957;47.222;18.670;2022-10-16T00:44:55;100671.31;;;10.24;100.00
67052;BME280;53957;47.222;18.670;2022-10-16T00:48:11;100674.03;;;10.09;100.00
67052;BME280;53957;47.222;18.670;2022-10-16T00:51:19;100674.28;;;10.02;100.00
67052;BME280;53957;47.222;18.670;2022-10-16T00:54:26;100671.09;;;10.00;100.00
67052;BME280;53957;47.222;18.670;2022-10-16T00:57:30;100676.66;;;9.98;100.00
67052;BME280;53957;47.222;18.670;2022-10-16T01:00:34;100678.53;;;9.88;100.00
67052;BME280;53957;47.222;18.670;2022-10-16T01:03:37;100681.47;;;9.71;100.00
67052;BME280;53957;47.222;18.670;2022-10-16T01:10:35;100685.72;;;9.61;100.00
67052;BME280;53957;47.222;18.670;2022-10-16T01:13:42;100683.59;;;9.74;100.00
67052;BME280;53957;47.222;18.670;2022-10-16T01:16:55;100677.44;;;9.53;100.00
67052;BME280;53957;47.222;18.670;2022-10-16T01:30:15;100684.84;;;9.25;100.00
67052;BME280;53957;47.222;18.670;2022-10-16T01:33:22;100696.00;;;9.16;100.00
67052;BME280;53957;47.222;18.670;2022-10-16T01:36:44;100705.28;;;9.09;100.00
67052;BME280;53957;47.222;18.670;2022-10-16T01:39:49;100703.78;;;9.39;100.00
67052;BME280;53957;47.222;18.670;2022-10-16T01:43:00;100695.72;;;9.18;100.00
67052;BME280;53957;47.222;18.670;2022-10-16T01:46:05;100697.06;;;9.21;100.00
67052;BME280;53957;47.222;18.670;2022-10-16T01:49:10;100710.06;;;9.12;100.00
67052;BME280;53957;47.222;18.670;2022-10-16T01:52:21;100707.41;;;9.07;100.00
67052;BME280;53957;47.222;18.670;2022-10-16T01:55:29;100712.69;;;8.96;100.00
67052;BME280;53957;47.222;18.670;2022-10-16T01:58:40;100716.41;;;9.00;100.00
67052;BME280;53957;47.222;18.670;2022-10-16T02:01:53;100719.00;;;8.90;100.00
67052;BME280;53957;47.222;18.670;2022-10-16T02:05:28;100721.66;;;8.85;100.00
67052;BME280;53957;47.222;18.670;2022-10-16T02:08:34;100717.91;;;8.76;100.00
67052;BME280;53957;47.222;18.670;2022-10-16T02:11:38;100711.47;;;8.72;100.00
67052;BME280;53957;47.222;18.670;2022-10-16T02:14:41;100721.56;;;8.64;100.00
67052;BME280;53957;47.222;18.670;2022-10-16T02:17:44;100717.78;;;8.60;100.00
67052;BME280;53957;47.222;18.670;2022-10-16T02:20:54;100718.56;;;8.56;100.00
67052;BME280;53957;47.222;18.670;2022-10-16T02:24:13;100725.44;;;8.46;100.00
67052;BME280;53957;47.222;18.670;2022-10-16T02:27:41;100724.84;;;8.44;100.00
67052;BME280;53957;47.222;18.670;2022-10-16T02:30:54;100731.91;;;8.28;100.00
67052;BME280;53957;47.222;18.670;2022-10-16T02:34:00;100740.69;;;8.29;100.00
67052;BME280;53957;47.222;18.670;2022-10-16T02:37:06;100734.81;;;8.27;100.00
67052;BME280;53957;47.222;18.670;2022-10-16T02:40:10;100746.06;;;8.39;100.00
67052;BME280;53957;47.222;18.670;2022-10-16T02:43:13;100742.50;;;8.23;100.00
67052;BME280;53957;47.222;18.670;2022-10-16T02:46:17;100737.75;;;8.25;100.00
67052;BME280;53957;47.222;18.670;2022-10-16T02:49:22;100737.75;;;8.25;100.00
67052;BME280;53957;47.222;18.670;2022-10-16T02:52:30;100733.91;;;8.11;100.00
67052;BME280;53957;47.222;18.670;2022-10-16T02:55:33;100733.34;;;8.09;100.00
67052;BME280;53957;47.222;18.670;2022-10-16T02:58:39;100733.84;;;8.05;100.00
67052;BME280;53957;47.222;18.670;2022-10-16T03:01:42;100736.50;;;8.05;100.00
67052;BME280;53957;47.222;18.670;2022-10-16T03:04:45;100742.84;;;7.99;100.00
67052;BME280;53957;47.222;18.670;2022-10-16T03:07:48;100743.84;;;7.93;100.00
67052;BME280;53957;47.222;18.670;2022-10-16T03:10:51;100736.06;;;7.86;100.00
67052;BME280;53957;47.222;18.670;2022-10-16T03:13:54;100743.84;;;7.93;100.00
67052;BME280;53957;47.222;18.670;2022-10-16T03:16:57;100750.16;;;7.87;100.00
67052;BME280;53957;47.222;18.670;2022-10-16T03:20:00;100761.25;;;7.84;100.00
67052;BME280;53957;47.222;18.670;2022-10-16T03:23:03;100758.87;;;7.82;100.00
67052;BME280;53957;47.222;18.670;2022-10-16T03:26:08;100771.84;;;7.79;100.00
67052;BME280;53957;47.222;18.670;2022-10-16T03:29:11;100762.09;;;7.84;100.00
67052;BME280;53957;47.222;18.670;2022-10-16T03:32:14;100765.28;;;7.86;100.00
67052;BME280;53957;47.222;18.670;2022-10-16T03:35:17;100763.94;;;7.84;100.00
67052;BME280;53957;47.222;18.670;2022-10-16T03:38:21;100775.38;;;7.84;100.00
67052;BME280;53957;47.222;18.670;2022-10-16T03:41:24;100777.09;;;7.73;100.00
67052;BME280;53957;47.222;18.670;2022-10-16T03:44:27;100782.09;;;7.70;100.00
67052;BME280;53957;47.222;18.670;2022-10-16T03:47:30;100785.59;;;7.70;100.00
67052;BME280;53957;47.222;18.670;2022-10-16T03:50:35;100798.97;;;7.58;100.00
67052;BME280;53957;47.222;18.670;2022-10-16T03:53:38;100796.22;;;7.48;100.00
67052;BME280;53957;47.222;18.670;2022-10-16T03:56:41;100800.09;;;7.40;100.00
67052;BME280;53957;47.222;18.670;2022-10-16T03:59:44;100806.28;;;7.46;100.00
67052;BME280;53957;47.222;18.670;2022-10-16T04:02:47;100804.53;;;7.35;100.00
67052;BME280;53957;47.222;18.670;2022-10-16T04:05:51;100806.87;;;7.31;100.00
67052;BME280;53957;47.222;18.670;2022-10-16T04:08:55;100809.09;;;7.39;100.00
67052;BME280;53957;47.222;18.670;2022-10-16T04:11:58;100812.41;;;7.52;100.00
67052;BME280;53957;47.222;18.670;2022-10-16T04:15:04;100805.53;;;7.29;100.00
67052;BME280;53957;47.222;18.670;2022-10-16T04:18:11;100806.47;;;7.00;100.00
67052;BME280;53957;47.222;18.670;2022-10-16T04:21:14;100809.06;;;6.95;100.00
67052;BME280;53957;47.222;18.670;2022-10-16T04:24:20;100807.19;;;6.96;100.00
67052;BME280;53957;47.222;18.670;2022-10-16T04:27:22;100810.41;;;6.98;100.00
67052;BME280;53957;47.222;18.670;2022-10-16T04:30:26;100821.75;;;6.93;100.00
67052;BME280;53957;47.222;18.670;2022-10-16T04:33:29;100813.47;;;6.89;100.00
67052;BME280;53957;47.222;18.670;2022-10-16T04:36:32;100814.84;;;6.92;100.00
67052;BME280;53957;47.222;18.670;2022-10-16T04:39:34;100811.13;;;6.93;100.00
67052;BME280;53957;47.222;18.670;2022-10-16T04:42:37;100803.94;;;7.11;100.00
67052;BME280;53957;47.222;18.670;2022-10-16T04:45:40;100802.78;;;7.01;100.00
67052;BME280;53957;47.222;18.670;2022-10-16T04:48:44;100806.41;;;6.95;100.00
67052;BME280;53957;47.222;18.670;2022-10-16T04:51:47;100806.69;;;6.99;100.00
67052;BME280;53957;47.222;18.670;2022-10-16T04:54:50;100805.69;;;6.49;100.00
67052;BME280;53957;47.222;18.670;2022-10-16T04:57:59;100802.22;;;6.65;100.00
67052;BME280;53957;47.222;18.670;2022-10-16T05:01:02;100808.28;;;6.60;100.00
67052;BME280;53957;47.222;18.670;2022-10-16T05:04:04;100803.44;;;6.40;100.00
67052;BME280;53957;47.222;18.670;2022-10-16T05:07:17;100812.12;;;6.53;100.00
67052;BME280;53957;47.222;18.670;2022-10-16T05:10:34;100816.53;;;6.47;100.00
67052;BME280;53957;47.222;18.670;2022-10-16T05:13:42;100820.94;;;6.41;100.00
67052;BME280;53957;47.222;18.670;2022-10-16T05:16:56;100820.16;;;6.41;100.00
67052;BME280;53957;47.222;18.670;2022-10-16T05:20:19;100829.16;;;6.57;100.00
67052;BME280;53957;47.222;18.670;2022-10-16T05:23:30;100831.97;;;6.67;100.00
67052;BME280;53957;47.222;18.670;2022-10-16T05:26:43;100824.97;;;6.61;100.00
67052;BME280;53957;47.222;18.670;2022-10-16T05:29:50;100828.41;;;6.96;100.00
67052;BME280;53957;47.222;18.670;2022-10-16T05:33:24;100828.62;;;7.11;100.00
67052;BME280;53957;47.222;18.670;2022-10-16T05:36:36;100839.59;;;6.98;100.00
67052;BME280;53957;47.222;18.670;2022-10-16T05:39:45;100842.00;;;6.99;100.00
67052;BME280;53957;47.222;18.670;2022-10-16T05:42:49;100845.16;;;6.79;100.00
67052;BME280;53957;47.222;18.670;2022-10-16T05:46:05;100850.25;;;7.20;100.00
67052;BME280;53957;47.222;18.670;2022-10-16T05:49:08;100851.75;;;7.55;100.00
67052;BME280;53957;47.222;18.670;2022-10-16T05:52:51;100860.97;;;7.47;100.00
67052;BME280;53957;47.222;18.670;2022-10-16T05:56:15;100862.44;;;7.60;100.00
67052;BME280;53957;47.222;18.670;2022-10-16T05:59:59;100867.75;;;7.60;100.00
67052;BME280;53957;47.222;18.670;2022-10-16T06:03:02;100879.41;;;7.59;100.00
67052;BME280;53957;47.222;18.670;2022-10-16T06:06:45;100885.91;;;7.68;100.00
67052;BME280;53957;47.222;18.670;2022-10-16T06:10:08;100891.47;;;7.89;100.00
67052;BME280;53957;47.222;18.670;2022-10-16T06:13:32;100895.47;;;8.14;100.00
67052;BME280;53957;47.222;18.670;2022-10-16T06:16:37;100891.44;;;8.61;100.00
67052;BME280;53957;47.222;18.670;2022-10-16T06:19:50;100893.22;;;9.20;100.00
67052;BME280;53957;47.222;18.670;2022-10-16T06:22:53;100897.16;;;9.12;100.00
67052;BME280;53957;47.222;18.670;2022-10-16T06:29:29;100907.78;;;9.50;100.00
67052;BME280;53957;47.222;18.670;2022-10-16T06:33:12;100909.72;;;9.70;100.00
67052;BME280;53957;47.222;18.670;2022-10-16T06:36:16;100916.91;;;9.59;100.00
67052;BME280;53957;47.222;18.670;2022-10-16T06:39:19;100916.38;;;9.62;100.00
67052;BME280;53957;47.222;18.670;2022-10-16T06:42:27;100924.38;;;9.67;100.00
67052;BME280;53957;47.222;18.670;2022-10-16T06:45:31;100933.91;;;10.11;100.00
67052;BME280;53957;47.222;18.670;2022-10-16T06:48:54;100927.81;;;10.31;100.00
67052;BME280;53957;47.222;18.670;2022-10-16T06:52:05;100927.91;;;10.62;100.00
67052;BME280;53957;47.222;18.670;2022-10-16T06:55:08;100929.00;;;10.77;100.00
67052;BME280;53957;47.222;18.670;2022-10-16T06:58:52;100942.06;;;10.89;100.00
67052;BME280;53957;47.222;18.670;2022-10-16T07:01:55;100947.66;;;11.13;100.00
67052;BME280;53957;47.222;18.670;2022-10-16T07:05:18;100938.06;;;11.22;100.00
67052;BME280;53957;47.222;18.670;2022-10-16T07:08:42;100943.59;;;11.62;100.00
67052;BME280;53957;47.222;18.670;2022-10-16T07:12:06;100951.78;;;11.91;100.00
67052;BME280;53957;47.222;18.670;2022-10-16T07:15:49;100960.31;;;12.04;100.00
67052;BME280;53957;47.222;18.670;2022-10-16T07:19:17;100954.84;;;12.24;100.00
67052;BME280;53957;47.222;18.670;2022-10-16T07:22:40;100957.75;;;12.33;100.00
67052;BME280;53957;47.222;18.670;2022-10-16T07:26:04;100955.81;;;12.44;97.14
67052;BME280;53957;47.222;18.670;2022-10-16T07:29:21;100958.13;;;13.30;94.89
67052;BME280;53957;47.222;18.670;2022-10-16T07:32:25;100966.97;;;13.01;94.59
67052;BME280;53957;47.222;18.670;2022-10-16T07:35:53;100974.69;;;13.03;92.58
67052;BME280;53957;47.222;18.670;2022-10-16T07:39:01;100975.87;;;13.56;91.89
67052;BME280;53957;47.222;18.670;2022-10-16T07:42:32;100993.25;;;13.29;91.30
67052;BME280;53957;47.222;18.670;2022-10-16T07:45:55;100988.88;;;13.67;90.84
67052;BME280;53957;47.222;18.670;2022-10-16T07:49:22;100993.37;;;13.72;89.88
67052;BME280;53957;47.222;18.670;2022-10-16T07:52:29;100989.06;;;14.20;85.06
67052;BME280;53957;47.222;18.670;2022-10-16T07:55:35;100996.25;;;14.05;89.60
67052;BME280;53957;47.222;18.670;2022-10-16T07:58:58;101003.44;;;14.72;87.13
67052;BME280;53957;47.222;18.670;2022-10-16T08:02:01;101008.59;;;14.88;84.76
67052;BME280;53957;47.222;18.670;2022-10-16T08:05:24;101017.78;;;14.81;84.93
67052;BME280;53957;47.222;18.670;2022-10-16T08:08:47;101013.44;;;15.52;82.50
67052;BME280;53957;47.222;18.670;2022-10-16T08:12:10;101011.31;;;14.82;85.17
67052;BME280;53957;47.222;18.670;2022-10-16T08:15:19;101013.97;;;14.88;84.90
67052;BME280;53957;47.222;18.670;2022-10-16T08:18:25;101014.13;;;15.10;83.23
67052;BME280;53957;47.222;18.670;2022-10-16T08:25:09;101017.22;;;15.51;79.23
67052;BME280;53957;47.222;18.670;2022-10-16T08:28:31;101021.25;;;15.81;79.73
67052;BME280;53957;47.222;18.670;2022-10-16T08:31:39;101019.91;;;16.48;77.68
67052;BME280;53957;47.222;18.670;2022-10-16T08:34:44;101022.91;;;16.47;77.18
67052;BME280;53957;47.222;18.670;2022-10-16T08:38:04;101023.69;;;16.61;75.60
67052;BME280;53957;47.222;18.670;2022-10-16T08:52:13;101039.12;;;16.69;73.48
67052;BME280;53957;47.222;18.670;2022-10-16T08:55:43;101042.47;;;17.34;69.80
67052;BME280;53957;47.222;18.670;2022-10-16T08:58:48;101040.13;;;17.42;72.74
67052;BME280;53957;47.222;18.670;2022-10-16T09:01:55;101039.78;;;17.34;71.14
67052;BME280;53957;47.222;18.670;2022-10-16T09:05:41;101044.88;;;17.13;74.21
67052;BME280;53957;47.222;18.670;2022-10-16T09:13:26;101044.75;;;18.04;72.66
67052;BME280;53957;47.222;18.670;2022-10-16T09:17:35;101052.53;;;16.97;73.02
67052;BME280;53957;47.222;18.670;2022-10-16T09:21:32;101058.50;;;17.62;72.45
67052;BME280;53957;47.222;18.670;2022-10-16T09:24:46;101057.41;;;17.63;71.06
67052;BME280;53957;47.222;18.670;2022-10-16T09:28:08;101058.75;;;17.83;71.54
67052;BME280;53957;47.222;18.670;2022-10-16T09:31:18;101048.28;;;17.82;70.57
67052;BME280;53957;47.222;18.670;2022-10-16T09:34:36;101043.19;;;17.49;71.14
67052;BME280;53957;47.222;18.670;2022-10-16T09:37:42;101058.78;;;18.24;68.84
67052;BME280;53957;47.222;18.670;2022-10-16T09:40:46;101061.19;;;18.34;69.04
67052;BME280;53957;47.222;18.670;2022-10-16T09:43:57;101066.56;;;17.94;70.97
67052;BME280;53957;47.222;18.670;2022-10-16T09:47:26;101066.91;;;18.32;68.39
67052;BME280;53957;47.222;18.670;2022-10-16T09:51:01;101068.91;;;18.09;68.37
67052;BME280;53957;47.222;18.670;2022-10-16T09:54:25;101063.63;;;18.04;70.42
67052;BME280;53957;47.222;18.670;2022-10-16T09:57:30;101062.03;;;19.05;69.51
67052;BME280;53957;47.222;18.670;2022-10-16T10:00:54;101062.38;;;18.94;65.53
67052;BME280;53957;47.222;18.670;2022-10-16T10:04:07;101062.50;;;18.80;67.79
67052;BME280;53957;47.222;18.670;2022-10-16T10:07:32;101062.19;;;18.82;67.54
67052;BME280;53957;47.222;18.670;2022-10-16T10:11:02;101058.59;;;18.11;68.28
67052;BME280;53957;47.222;18.670;2022-10-16T10:14:47;101049.44;;;18.56;68.73
67052;BME280;53957;47.222;18.670;2022-10-16T10:18:31;101056.44;;;18.40;68.90
67052;BME280;53957;47.222;18.670;2022-10-16T10:21:48;101053.59;;;18.62;69.03
67052;BME280;53957;47.222;18.670;2022-10-16T10:26:13;101051.22;;;18.70;67.41
67052;BME280;53957;47.222;18.670;2022-10-16T10:36:19;101053.72;;;18.40;68.48
67052;BME280;53957;47.222;18.670;2022-10-16T10:40:28;101048.25;;;18.13;67.92
67052;BME280;53957;47.222;18.670;2022-10-16T10:44:15;101040.69;;;18.59;68.69
67052;BME280;53957;47.222;18.670;2022-10-16T10:51:55;101040.69;;;18.59;70.01
67052;BME280;53957;47.222;18.670;2022-10-16T10:55:15;101031.66;;;18.73;66.98
67052;BME280;53957;47.222;18.670;2022-10-16T10:58:55;101032.12;;;18.83;69.00
67052;BME280;53957;47.222;18.670;2022-10-16T11:09:40;101031.97;;;18.62;66.85
67052;BME280;53957;47.222;18.670;2022-10-16T11:12:48;101038.50;;;18.61;67.24
67052;BME280;53957;47.222;18.670;2022-10-16T11:16:22;101024.81;;;18.75;66.92
67052;BME280;53957;47.222;18.670;2022-10-16T11:19:47;101025.88;;;19.36;67.07
67052;BME280;53957;47.222;18.670;2022-10-16T11:23:05;101020.53;;;18.83;67.33
67052;BME280;53957;47.222;18.670;2022-10-16T11:26:17;101023.56;;;18.90;66.65
67052;BME280;53957;47.222;18.670;2022-10-16T11:29:29;101021.97;;;18.98;66.64
67052;BME280;53957;47.222;18.670;2022-10-16T11:37:14;101019.22;;;19.24;66.93
67052;BME280;53957;47.222;18.670;2022-10-16T11:40:38;101017.69;;;19.06;66.05
67052;BME280;53957;47.222;18.670;2022-10-16T11:44:00;101013.84;;;18.89;65.95
67052;BME280;53957;47.222;18.670;2022-10-16T11:47:45;101005.53;;;19.29;65.02
67052;BME280;53957;47.222;18.670;2022-10-16T11:51:23;101013.81;;;19.24;64.67
67052;BME280;53957;47.222;18.670;2022-10-16T11:57:58;101012.47;;;19.48;67.89
67052;BME280;53957;47.222;18.670;2022-10-16T12:04:40;101003.59;;;19.39;65.03
67052;BME280;53957;47.222;18.670;2022-10-16T12:07:56;101010.44;;;19.45;63.52
67052;BME280;53957;47.222;18.670;2022-10-16T12:11:23;101008.31;;;19.59;62.42
67052;BME280;53957;47.222;18.670;2022-10-16T12:14:44;101002.63;;;19.52;63.23
67052;BME280;53957;47.222;18.670;2022-10-16T12:18:27;100997.56;;;19.81;65.12
67052;BME280;53957;47.222;18.670;2022-10-16T12:21:30;100994.84;;;19.89;62.87
67052;BME280;53957;47.222;18.670;2022-10-16T12:24:35;101001.44;;;20.01;62.84
67052;BME280;53957;47.222;18.670;2022-10-16T12:28:04;100999.44;;;19.80;61.86
67052;BME280;53957;47.222;18.670;2022-10-16T12:31:09;100997.47;;;19.68;61.64
67052;BME280;53957;47.222;18.670;2022-10-16T12:34:39;100999.28;;;19.85;62.25
67052;BME280;53957;47.222;18.670;2022-10-16T12:37:44;100996.47;;;19.73;61.87
67052;BME280;53957;47.222;18.670;2022-10-16T12:44:02;100992.16;;;19.81;61.64
67052;BME280;53957;47.222;18.670;2022-10-16T12:47:23;100984.81;;;19.81;62.48
67052;BME280;53957;47.222;18.670;2022-10-16T12:50:37;100977.97;;;19.84;61.48
67052;BME280;53957;47.222;18.670;2022-10-16T12:53:42;100978.12;;;19.87;62.57
67052;BME280;53957;47.222;18.670;2022-10-16T13:07:27;100986.19;;;19.96;61.86
67052;BME280;53957;47.222;18.670;2022-10-16T13:18:19;100997.41;;;19.86;61.09
67052;BME280;53957;47.222;18.670;2022-10-16T13:21:37;100995.28;;;19.91;60.92
67052;BME280;53957;47.222;18.670;2022-10-16T13:28:06;101004.06;;;19.88;61.44
67052;BME280;53957;47.222;18.670;2022-10-16T13:31:20;100999.37;;;19.98;59.74
67052;BME280;53957;47.222;18.670;2022-10-16T13:34:27;101002.47;;;19.87;60.68
67052;BME280;53957;47.222;18.670;2022-10-16T13:37:30;101006.25;;;19.95;61.37
67052;BME280;53957;47.222;18.670;2022-10-16T13:40:33;101004.88;;;20.10;60.39
67052;BME280;53957;47.222;18.670;2022-10-16T13:43:40;101011.34;;;19.97;61.41
67052;BME280;53957;47.222;18.670;2022-10-16T13:47:03;101006.19;;;20.04;61.34
67052;BME280;53957;47.222;18.670;2022-10-16T13:50:12;101017.31;;;20.11;61.15
67052;BME280;53957;47.222;18.670;2022-10-16T13:53:15;101017.69;;;20.01;61.12
67052;BME280;53957;47.222;18.670;2022-10-16T13:56:20;101008.75;;;20.09;60.26
67052;BME280;53957;47.222;18.670;2022-10-16T13:59:34;101013.88;;;20.02;62.12
67052;BME280;53957;47.222;18.670;2022-10-16T14:02:55;101015.97;;;19.96;61.59
67052;BME280;53957;47.222;18.670;2022-10-16T14:06:05;101020.50;;;19.83;62.31
67052;BME280;53957;47.222;18.670;2022-10-16T14:09:25;101023.22;;;19.83;61.44
67052;BME280;53957;47.222;18.670;2022-10-16T14:12:29;101023.13;;;20.01;61.53
67052;BME280;53957;47.222;18.670;2022-10-16T14:15:35;101022.53;;;19.86;61.55
67052;BME280;53957;47.222;18.670;2022-10-16T14:18:39;101026.22;;;19.82;61.82
67052;BME280;53957;47.222;18.670;2022-10-16T14:21:42;101017.84;;;19.66;61.50
67052;BME280;53957;47.222;18.670;2022-10-16T14:24:45;101014.94;;;19.71;61.56
67052;BME280;53957;47.222;18.670;2022-10-16T14:31:26;101019.44;;;19.58;62.20
67052;BME280;53957;47.222;18.670;2022-10-16T15:11:22;101022.47;;;19.09;64.19
67052;BME280;53957;47.222;18.670;2022-10-16T15:14:47;101029.44;;;19.10;64.89
67052;BME280;53957;47.222;18.670;2022-10-16T15:17:51;101031.97;;;18.89;65.42
67052;BME280;53957;47.222;18.670;2022-10-16T15:20:56;101029.75;;;18.82;65.21
67052;BME280;53957;47.222;18.670;2022-10-16T15:24:00;101046.09;;;18.59;66.21
67052;BME280;53957;47.222;18.670;2022-10-16T15:27:03;101051.06;;;18.57;65.62
67052;BME280;53957;47.222;18.670;2022-10-16T15:30:06;101057.72;;;18.51;66.46
67052;BME280;53957;47.222;18.670;2022-10-16T15:33:29;101051.81;;;18.49;66.54
67052;BME280;53957;47.222;18.670;2022-10-16T15:37:04;101061.53;;;18.50;66.84
67052;BME280;53957;47.222;18.670;2022-10-16T15:40:34;101051.97;;;18.44;67.27
67052;BME280;53957;47.222;18.670;2022-10-16T15:43:36;101068.19;;;18.44;67.04
67052;BME280;53957;47.222;18.670;2022-10-16T15:46:59;101066.91;;;18.32;67.15
67052;BME280;53957;47.222;18.670;2022-10-16T15:50:04;101072.53;;;18.05;68.72
67052;BME280;53957;47.222;18.670;2022-10-16T15:53:12;101072.06;;;17.80;71.38
67052;BME280;53957;47.222;18.670;2022-10-16T15:56:15;101073.22;;;17.56;72.10
67052;BME280;53957;47.222;18.670;2022-10-16T15:59:38;101077.78;;;17.24;73.08
67052;BME280;53957;47.222;18.670;2022-10-16T16:02:42;101070.69;;;17.05;74.78
67052;BME280;53957;47.222;18.670;2022-10-16T16:06:10;101067.75;;;16.65;75.07
67052;BME280;53957;47.222;18.670;2022-10-16T16:09:15;101068.56;;;16.52;75.46
67052;BME280;53957;47.222;18.670;2022-10-16T16:12:18;101070.97;;;16.39;75.71
67052;BME280;53957;47.222;18.670;2022-10-16T16:15:40;101068.22;;;16.17;76.42
67052;BME280;53957;47.222;18.670;2022-10-16T16:18:48;101070.50;;;15.96;77.03
67052;BME280;53957;47.222;18.670;2022-10-16T16:21:54;101083.44;;;16.07;77.01
67052;BME280;53957;47.222;18.670;2022-10-16T16:24:59;101082.84;;;15.83;77.68
67052;BME280;53957;47.222;18.670;2022-10-16T16:28:24;101083.94;;;15.49;78.79
67052;BME280;53957;47.222;18.670;2022-10-16T16:31:47;101083.81;;;15.40;79.02
67052;BME280;53957;47.222;18.670;2022-10-16T16:35:10;101085.25;;;15.32;79.42
67052;BME280;53957;47.222;18.670;2022-10-16T16:38:13;101096.25;;;15.17;80.23
67052;BME280;53957;47.222;18.670;2022-10-16T16:41:22;101107.28;;;14.96;81.40
67052;BME280;53957;47.222;18.670;2022-10-16T16:44:36;101107.44;;;14.86;81.68
67052;BME280;53957;47.222;18.670;2022-10-16T16:47:59;101117.81;;;14.73;82.20
67052;BME280;53957;47.222;18.670;2022-10-16T16:51:42;101120.31;;;14.64;82.68
67052;BME280;53957;47.222;18.670;2022-10-16T16:54:47;101131.38;;;14.58;83.09
67052;BME280;53957;47.222;18.670;2022-10-16T16:58:05;101136.34;;;14.45;83.95
67052;BME280;53957;47.222;18.670;2022-10-16T17:01:28;101139.47;;;14.33;84.58
67052;BME280;53957;47.222;18.670;2022-10-16T17:04:36;101150.91;;;14.15;85.68
67052;BME280;53957;47.222;18.670;2022-10-16T17:07:55;101149.13;;;14.05;86.12
67052;BME280;53957;47.222;18.670;2022-10-16T18:22:06;101218.06;;;13.20;92.49
67052;BME280;53957;47.222;18.670;2022-10-16T18:25:10;101224.81;;;13.02;93.11
67052;BME280;53957;47.222;18.670;2022-10-16T18:28:12;101227.50;;;13.02;93.20
67052;BME280;53957;47.222;18.670;2022-10-16T18:31:16;101228.06;;;12.99;93.35
67052;BME280;53957;47.222;18.670;2022-10-16T18:34:19;101222.53;;;12.69;94.81
67052;BME280;53957;47.222;18.670;2022-10-16T18:37:22;101221.22;;;12.56;96.05
67052;BME280;53957;47.222;18.670;2022-10-16T18:40:25;101219.84;;;12.69;95.55
67052;BME280;53957;47.222;18.670;2022-10-16T18:43:28;101226.03;;;12.65;95.95
67052;BME280;53957;47.222;18.670;2022-10-16T18:46:32;101237.00;;;12.68;96.24
67052;BME280;53957;47.222;18.670;2022-10-16T18:49:35;101233.47;;;12.83;95.42
67052;BME280;53957;47.222;18.670;2022-10-16T18:52:38;101228.62;;;12.80;95.85
67052;BME280;53957;47.222;18.670;2022-10-16T18:55:41;101226.78;;;12.81;96.07
67052;BME280;53957;47.222;18.670;2022-10-16T18:58:45;101231.91;;;12.72;96.94
67052;BME280;53957;47.222;18.670;2022-10-16T19:01:50;101236.13;;;12.83;96.40
67052;BME280;53957;47.222;18.670;2022-10-16T19:04:53;101242.56;;;12.82;96.82
67052;BME280;53957;47.222;18.670;2022-10-16T19:07:57;101239.88;;;12.87;96.80
67052;BME280;53957;47.222;18.670;2022-10-16T19:11:14;101242.31;;;12.79;97.34
67052;BME280;53957;47.222;18.670;2022-10-16T19:14:17;101249.56;;;12.68;98.10
67052;BME280;53957;47.222;18.670;2022-10-16T19:17:22;101248.75;;;12.83;97.22
67052;BME280;53957;47.222;18.670;2022-10-16T19:20:25;101257.06;;;12.66;98.22
67052;BME280;53957;47.222;18.670;2022-10-16T19:23:28;101256.00;;;12.56;98.89
67052;BME280;53957;47.222;18.670;2022-10-16T19:26:31;101260.28;;;12.63;98.79
67052;BME280;53957;47.222;18.670;2022-10-16T19:29:39;101260.03;;;12.49;99.85
67052;BME280;53957;47.222;18.670;2022-10-16T19:32:42;101269.94;;;12.59;99.56
67052;BME280;53957;47.222;18.670;2022-10-16T19:35:46;101263.78;;;12.48;100.00
67052;BME280;53957;47.222;18.670;2022-10-16T19:38:55;101276.34;;;12.37;100.00
67052;BME280;53957;47.222;18.670;2022-10-16T19:41:58;101271.03;;;12.42;100.00
67052;BME280;53957;47.222;18.670;2022-10-16T19:45:01;101261.38;;;12.26;100.00
67052;BME280;53957;47.222;18.670;2022-10-16T19:48:04;101267.25;;;12.33;100.00
67052;BME280;53957;47.222;18.670;2022-10-16T19:51:15;101262.47;;;12.30;100.00
67052;BME280;53957;47.222;18.670;2022-10-16T19:54:20;101268.59;;;12.30;100.00